Flight Track Log - Related Links

Times and Time Zones

All times are in EDT time to prevent confusion due to time zone crossing. See the EGF4449 flight status page for this flight to view local times or setup timezone preferences in your user account.

Time Position Orientation Groundspeed Altitude Reporting Facility
EDT Latitude Longitude Course Direction KTS MPH feet Rate Location/Type
Sun 09:56:55 PM 40.6333 -73.8333 217° Southwest 154 177 1,800  Level New York TRACON
Sun 09:57:55 PM 40.5833 -73.8333 180° South 243 280 4,300 2,531 Climbing New York TRACON
Sun 09:58:00 PM 40.4075 -73.5574 143° Southeast  Level FlightAware Approximate
Sun 09:59:00 PM 40.3332 -73.4831 143° Southeast  Level FlightAware Approximate
Sun 10:00:00 PM 40.2589 -73.4089 143° Southeast  Level FlightAware Approximate
Sun 10:00:07 PM 40.4675 -73.6819 135° Southeast 278 320 9,900  Level New York Center
Sun 10:01:00 PM 40.1847 -73.3346 143° Southeast  Level FlightAware Approximate
Sun 10:01:07 PM 40.4089 -73.6111 137° Southeast 297 342 11,200  Level New York Center
Sun 10:02:00 PM 40.1050 -73.2950 217° Southwest  Level FlightAware Approximate
Sun 10:02:06 PM 40.3297 -73.5208 139° Southeast 330 380 12,400  Level New York Center
Sun 10:03:07 PM 40.2444 -73.5119 175° South 326 375 13,700 1,462 Climbing New York Center
Sun 10:04:05 PM 40.1425 -73.5081 178° South 337 388 15,300 1,160 Climbing New York Center
Sun 10:05:06 PM 40.0625 -73.5400 197° South 337 388 16,000 590 Climbing New York Center
Sun 10:06:07 PM 39.9736 -73.5906 204° Southwest 342 394 16,500 992 Climbing New York Center
Sun 10:07:07 PM 39.8911 -73.6467 208° Southwest 347 399 18,000 1,537 Climbing New York Center
Sun 10:07:29 PM 39.8522 -73.6753 209° Southwest 346 398 18,600 1,518 Climbing Washington Center
Sun 10:08:30 PM 39.7761 -73.7367 212° Southwest 341 392 20,100 1,488 Climbing Washington Center
Sun 10:09:30 PM 39.7019 -73.7953 211° Southwest 329 379 21,600 1,361 Climbing Washington Center
Sun 10:10:29 PM 39.6258 -73.8539 211° Southwest 329 379 22,800 706 Climbing Washington Center
Sun 10:11:29 PM 39.5433 -73.9178 211° Southwest 330 380 23,000 100 Climbing Washington Center
Sun 10:12:29 PM 39.4608 -73.9789 210° Southwest 341 392 23,000  Level Washington Center
Sun 10:13:27 PM 39.3806 -74.0478 214° Southwest 346 398 23,000 -50 Level Washington Center
Sun 10:14:28 PM 39.3044 -74.1325 221° Southwest 358 412 22,900 -639 Descending Washington Center
Sun 10:15:29 PM 39.2306 -74.2169 222° Southwest 358 412 21,700 -1,200 Descending Washington Center
Sun 10:16:28 PM 39.1606 -74.2933 220° Southwest 352 405 20,500 -1,200 Descending Washington Center
Sun 10:17:29 PM 39.0925 -74.3694 221° Southwest 344 396 19,300 -1,210 Descending Washington Center
Sun 10:18:27 PM 39.0222 -74.4453 220° Southwest 337 388 18,100 -655 Descending Washington Center
Sun 10:19:28 PM 38.9522 -74.5211 220° Southwest 332 382 18,000 -49 Descending Washington Center
Sun 10:20:29 PM 38.9178 -74.6311 248° West 317 365 18,000 -148 Level Washington Center
Sun 10:21:30 PM 38.8997 -74.7461 259° West 329 379 17,700 -655 Descending Washington Center
Sun 10:22:28 PM 38.8797 -74.8583 257° West 335 386 16,700 -908 Descending Washington Center
Sun 10:23:29 PM 38.8553 -74.9731 255° West 335 386 15,900 -347 Descending Washington Center
Sun 10:24:29 PM 38.8372 -75.0853 258° West 335 386 16,000  Climbing Washington Center
Sun 10:25:29 PM 38.8147 -75.1947 255° West 330 380 15,900 -545 Descending Washington Center
Sun 10:26:30 PM 38.8025 -75.3119 262° West 330 380 14,900 -958 Descending Washington Center
Sun 10:27:28 PM 38.7964 -75.4292 266° West 335 386 14,000 -864 Descending Washington Center
Sun 10:28:28 PM 38.7903 -75.5464 266° West 330 380 13,200 -843 Descending Washington Center
Sun 10:29:29 PM 38.7839 -75.6583 266° West 330 380 12,300 -787 Descending Washington Center
Sun 10:30:30 PM 38.7756 -75.7781 265° West 330 380 11,600 -661 Descending Washington Center
Sun 10:31:27 PM 38.7669 -75.8897 264° West 330 380 11,000 -305 Descending Washington Center
Sun 10:32:28 PM 38.7583 -76.0017 264° West 330 380 11,000  Level Washington Center
Sun 10:33:29 PM 38.7619 -76.1214 272° West 330 380 11,000 -200 Level Washington Center
Sun 10:34:28 PM 38.7636 -76.2281 271° West 337 388 10,600 -500 Descending Washington Center
Sun 10:35:29 PM 38.7756 -76.3400 278° West 332 382 10,000 -429 Descending Washington Center
Sun 10:35:52 PM 38.7833 -76.3833 283° West 319 367 10,000  Level Potomac TRACON
Sun 10:36:52 PM 38.8000 -76.5000 280° West 298 343 10,000  Level Potomac TRACON
Sun 10:37:52 PM 38.8000 -76.5833 270° West 248 285 10,000  Level Potomac TRACON
Sun 10:38:29 PM 38.7942 -76.6383 262° West 275 316 10,000  Level Washington Center
Sun 10:39:27 PM 38.7956 -76.7289 271° West 259 298 10,000 -1,389 Level Washington Center
Sun 10:41:52 PM 38.7333 -76.9000 245° Southwest 264 304 5,300 -1,727 Descending Potomac TRACON
Sun 10:42:52 PM 38.6667 -76.9000 180° South 252 290 4,100 -700 Descending Potomac TRACON
Sun 10:43:52 PM 38.6667 -76.9833 270° West 222 255 3,900 -200 Descending Potomac TRACON

Login

Don't have an account? Register now (free) for customized features, flight alerts, and more!